Time;durP1;ratioP1;P1;durP2;ratioP2;P2;SDS_P1;SDS_P2;PMS_P1;PMS_P2;Temp;Humidity;BMP_temperature;BMP_pressure;BME280_temperature;BME280_humidity;BME280_pressure;Samples;Min_cycle;Max_cycle;Signal;HPM_P1;HPM_P2
2022/12/21 00:02:24;;;;;;;0.00;0.00;;;6.80;99.90;;;6.76;100.00;100012.72;4987597;28;20240;-77
2022/12/21 00:04:51;;;;;;;0.10;0.10;;;6.80;99.90;;;6.72;100.00;100015.28;4986316;28;20578;-77
2022/12/21 00:07:18;;;;;;;0.10;0.10;;;6.80;99.90;;;6.69;100.00;100006.47;4991834;28;20228;-76
2022/12/21 00:09:46;;;;;;;0.20;0.20;;;6.80;99.90;;;6.64;100.00;99998.50;4989417;28;20224;-77
2022/12/21 00:12:13;;;;;;;0.00;0.00;;;6.80;99.90;;;6.64;100.00;99995.00;4991021;28;20649;-76
2022/12/21 00:14:40;;;;;;;0.10;0.10;;;6.70;99.90;;;6.72;100.00;100002.16;4987902;28;20763;-77
2022/12/21 00:17:07;;;;;;;2.10;0.52;;;6.80;99.90;;;6.71;100.00;100004.75;4990221;28;20240;-77
2022/12/21 00:19:34;;;;;;;0.38;0.38;;;6.80;99.90;;;6.69;100.00;100001.22;4988874;28;20235;-77
2022/12/21 00:22:01;;;;;;;0.10;0.10;;;6.80;99.90;;;6.71;100.00;99994.25;4990594;28;20290;-77
2022/12/21 00:24:28;;;;;;;0.10;0.10;;;6.80;99.90;;;6.68;100.00;99994.19;4987765;28;20240;-77
2022/12/21 00:26:55;;;;;;;0.10;0.10;;;6.80;99.90;;;6.73;100.00;99998.66;4990772;28;20298;-77
2022/12/21 00:29:22;;;;;;;0.03;0.03;;;6.80;99.90;;;6.77;100.00;100006.59;4986913;28;20234;-77
2022/12/21 00:31:50;;;;;;;0.08;0.08;;;6.80;99.90;;;6.82;100.00;100007.56;4991563;28;20302;-77
2022/12/21 00:34:46;;;;;;;0.10;0.10;;;6.90;99.90;;;6.83;100.00;100002.34;4992524;28;20267;-77
2022/12/21 00:37:13;;;;;;;0.32;0.32;;;6.90;99.90;;;6.85;100.00;100003.25;4981803;28;20291;-77
2022/12/21 00:39:40;;;;;;;0.00;0.00;;;6.90;99.90;;;6.96;100.00;100011.31;4973481;28;20646;-77
2022/12/21 00:42:07;;;;;;;0.10;0.10;;;7.00;99.90;;;6.97;100.00;100006.09;4970919;28;20291;-77
2022/12/21 00:44:34;;;;;;;0.10;0.10;;;7.00;99.90;;;7.03;100.00;100007.94;4971603;28;20217;-77
2022/12/21 00:47:01;;;;;;;0.10;0.10;;;7.10;99.90;;;7.04;100.00;100001.81;4972110;28;20233;-77
2022/12/21 00:49:28;;;;;;;0.00;0.00;;;7.10;99.90;;;7.13;100.00;100004.59;4984044;28;20264;-77
2022/12/21 00:51:55;;;;;;;0.10;0.10;;;7.20;99.90;;;7.12;100.00;100000.19;4986553;28;20612;-77
2022/12/21 00:54:22;;;;;;;0.00;0.00;;;7.20;99.90;;;7.17;100.00;100006.41;4971481;28;20229;-77
2022/12/21 00:56:49;;;;;;;0.20;0.20;;;7.30;99.90;;;7.16;100.00;100009.88;4972028;28;20235;-77
2022/12/21 00:59:16;;;;;;;0.10;0.10;;;7.20;99.90;;;7.21;100.00;100007.34;4974032;28;20237;-77
2022/12/21 01:01:43;;;;;;;0.00;0.00;;;7.30;99.90;;;7.22;100.00;100015.25;4969751;28;20312;-77
2022/12/21 01:04:11;;;;;;;0.10;0.10;;;7.30;99.90;;;7.26;100.00;100014.44;4970139;28;20222;-77
2022/12/21 01:06:38;;;;;;;0.10;0.10;;;7.30;99.90;;;7.28;100.00;100002.19;4970607;28;20237;-77
2022/12/21 01:09:06;;;;;;;0.57;0.57;;;7.30;99.90;;;7.25;100.00;100007.41;4970419;28;20284;-77
2022/12/21 01:11:33;;;;;;;0.10;0.10;;;7.40;99.90;;;7.25;100.00;100012.66;4971620;28;20300;-77
2022/12/21 01:14:00;;;;;;;0.10;0.10;;;7.40;99.90;;;7.31;100.00;100003.97;4972181;28;20312;-77
2022/12/21 01:16:31;;;;;;;0.40;0.40;;;7.40;99.90;;;7.35;100.00;100003.16;4980771;28;20232;-77
2022/12/21 01:19:03;;;;;;;0.10;0.10;;;7.40;99.90;;;7.44;100.00;100011.19;4974324;28;20243;-77
2022/12/21 01:21:31;;;;;;;0.10;0.10;;;7.50;99.90;;;7.45;100.00;100007.72;4975294;28;20232;-77
2022/12/21 01:23:59;;;;;;;0.40;0.40;;;7.50;99.90;;;7.57;100.00;100018.41;4975355;28;20241;-77
2022/12/21 01:26:27;;;;;;;0.00;0.00;;;7.60;99.90;;;7.68;100.00;100021.19;4978361;28;20650;-78
2022/12/21 01:28:54;;;;;;;0.00;0.00;;;7.70;99.90;;;7.70;100.00;100027.34;4973822;28;20229;-77
2022/12/21 01:31:21;;;;;;;0.10;0.10;;;7.70;99.90;;;7.79;100.00;100026.59;4973535;28;20299;-78
2022/12/21 01:33:49;;;;;;;0.10;0.10;;;;;;;7.81;100.00;100027.53;4970508;28;20312;-78
2022/12/21 01:36:18;;;;;;;0.10;0.10;;;7.90;99.90;;;7.83;100.00;100021.44;4970333;28;20776;-78
2022/12/21 01:38:46;;;;;;;0.10;0.10;;;7.90;99.90;;;7.91;100.00;100025.06;4967188;28;20233;-78
2022/12/21 01:41:19;;;;;;;0.10;0.10;;;8.00;99.90;;;7.93;100.00;100025.06;4969490;28;20221;-78
2022/12/21 01:43:51;;;;;;;0.00;0.00;;;8.00;99.90;;;7.95;100.00;100025.97;4975349;28;20231;-78
2022/12/21 01:46:40;;;;;;;0.10;0.10;;;8.10;99.90;;;8.00;100.00;100030.44;4969156;28;20259;-78
2022/12/21 01:49:29;;;;;;;0.00;0.00;;;8.00;99.90;;;7.99;100.00;100019.88;4968590;28;20229;-78
2022/12/21 01:52:07;;;;;;;0.10;0.10;;;8.00;99.90;;;7.90;100.00;100017.13;4964738;28;20243;-78
2022/12/21 01:55:00;;;;;;;0.00;0.00;;;8.00;99.90;;;7.95;100.00;100018.97;4965982;28;20220;-77
2022/12/21 01:57:32;;;;;;;0.10;0.10;;;8.00;99.90;;;7.97;100.00;100017.22;4980477;28;20236;-78
2022/12/21 02:00:03;;;;;;;0.10;0.10;;;8.10;99.90;;;8.06;100.00;100020.84;4989213;28;20232;-78
2022/12/21 02:02:42;;;;;;;0.10;0.10;;;8.10;99.90;;;7.99;100.00;100022.50;4986648;28;20253;-78
2022/12/21 02:05:34;;;;;;;0.10;0.10;;;8.10;99.90;;;8.02;100.00;100017.28;4984269;28;20284;-78
2022/12/21 02:08:04;;;;;;;0.05;0.05;;;8.10;99.90;;;8.07;100.00;100018.22;4987247;28;20220;-78
2022/12/21 02:10:32;;;;;;;0.00;0.00;;;8.20;99.90;;;8.10;100.00;100018.25;4989321;28;20346;-78
2022/12/21 02:13:10;;;;;;;0.00;0.00;;;8.20;99.90;;;8.20;100.00;100024.53;4988779;28;20263;-78
2022/12/21 02:15:58;;;;;;;0.17;0.17;;;8.20;99.90;;;8.24;100.00;100024.59;4967619;28;20252;-79
2022/12/21 02:18:54;;;;;;;0.35;0.22;;;8.30;99.90;;;8.13;100.00;100017.41;4981784;28;20229;-78
2022/12/21 02:21:39;;;;;;;0.10;0.10;;;8.30;99.90;;;8.22;100.00;100028.06;4998206;28;20237;-78
2022/12/21 02:24:44;;;;;;;0.10;0.10;;;8.30;99.90;;;8.23;100.00;100033.34;4976580;28;20677;-78
2022/12/21 02:27:38;;;;;;;0.00;0.00;;;8.00;99.90;;;8.20;100.00;100027.16;4987138;28;20236;-78
2022/12/21 02:30:19;;;;;;;0.20;0.15;;;8.30;99.90;;;8.15;100.00;100018.31;4984370;28;20232;-78
2022/12/21 02:33:20;;;;;;;0.10;0.10;;;8.20;99.90;;;8.20;100.00;100030.69;4988651;28;20232;-79
2022/12/21 02:36:43;;;;;;;0.28;0.28;;;8.30;99.90;;;8.27;100.00;100036.91;4987246;28;20232;-78
2022/12/21 02:39:40;;;;;;;0.10;0.10;;;8.30;99.90;;;8.24;100.00;100027.22;4989046;28;20267;-78
2022/12/21 02:45:48;;;;;;;0.10;0.10;;;8.30;99.90;;;8.20;100.00;100024.53;4992500;28;20699;-78
2022/12/21 02:49:05;;;;;;;0.10;0.10;;;8.30;99.90;;;8.25;100.00;100030.72;4979204;28;20252;-78
2022/12/21 02:52:03;;;;;;;0.22;0.22;;;8.30;99.90;;;8.30;100.00;100039.56;4992052;28;20252;-78
2022/12/21 02:54:30;;;;;;;0.10;0.10;;;8.30;99.90;;;8.30;100.00;100039.56;4979419;28;20286;-78
2022/12/21 02:56:56;;;;;;;0.10;0.10;;;8.40;99.90;;;8.29;100.00;100035.16;4995659;28;20236;-78
2022/12/21 02:59:29;;;;;;;0.10;0.10;;;8.40;99.90;;;8.44;100.00;100048.56;4980203;28;20244;-78
2022/12/21 03:02:46;;;;;;;0.10;0.10;;;8.50;99.90;;;8.29;100.00;100038.69;5001964;28;20349;-78
2022/12/21 03:05:47;;;;;;;0.20;0.20;;;8.40;99.90;;;8.41;100.00;100042.38;4984446;28;20240;-78
2022/12/21 03:09:01;;;;;;;0.57;0.57;;;8.50;99.90;;;8.39;100.00;100044.97;4987744;28;20657;-78
2022/12/21 03:11:54;;;;;;;0.00;0.00;;;8.50;99.90;;;8.43;100.00;100046.78;4986760;28;20236;-77
2022/12/21 03:14:33;;;;;;;0.10;0.10;;;8.50;99.90;;;8.40;100.00;100041.47;4983489;28;20247;-77
2022/12/21 03:17:42;;;;;;;0.10;0.10;;;8.50;99.90;;;8.45;100.00;100045.06;4982380;28;20255;-78
2022/12/21 03:20:48;;;;;;;0.10;0.10;;;8.50;99.90;;;8.47;100.00;100053.88;4984383;28;20236;-78
2022/12/21 03:23:27;;;;;;;0.30;0.30;;;8.60;99.90;;;8.55;100.00;100061.84;4983721;28;20228;-76
2022/12/21 03:26:11;;;;;;;0.38;0.38;;;8.60;99.90;;;8.52;100.00;100067.97;4980106;28;20742;-78
2022/12/21 03:28:41;;;;;;;0.10;0.10;;;8.60;99.90;;;8.44;100.00;100059.09;4983965;28;20251;-78
2022/12/21 03:31:20;;;;;;;0.00;0.00;;;8.60;99.90;;;8.49;100.00;100062.66;4981711;28;20240;-78
2022/12/21 03:34:15;;;;;;;0.00;0.00;;;8.60;99.90;;;8.44;100.00;100059.09;4984932;28;20663;-78
2022/12/21 03:37:08;;;;;;;0.10;0.10;;;8.50;99.90;;;8.45;100.00;100066.13;4979944;28;20308;-78
2022/12/21 03:39:41;;;;;;;0.10;0.10;;;8.50;99.90;;;8.53;100.00;100071.50;4982930;28;20693;-78
2022/12/21 03:42:18;;;;;;;0.00;0.00;;;8.60;99.90;;;8.47;100.00;100067.03;4986115;28;20672;-78
2022/12/21 03:45:00;;;;;;;0.10;0.10;;;8.50;99.90;;;8.51;100.00;100068.84;5000268;28;20224;-78
2022/12/21 03:48:00;;;;;;;0.00;0.00;;;8.60;99.90;;;8.55;100.00;100080.31;4981673;28;20294;-78
2022/12/21 03:50:35;;;;;;;0.10;0.10;;;8.60;99.90;;;8.58;100.00;100085.59;4981527;28;20252;-78
2022/12/21 03:53:39;;;;;;;0.10;0.10;;;8.70;99.90;;;8.61;100.00;100088.28;4981851;28;20298;-78
2022/12/21 03:56:13;;;;;;;0.22;0.22;;;8.70;99.90;;;8.61;100.00;100077.72;4981976;28;20224;-77
2022/12/21 03:58:40;;;;;;;0.13;0.13;;;8.70;99.90;;;8.60;100.00;100082.13;4982183;28;20232;-78
2022/12/21 04:01:38;;;;;;;0.00;0.00;;;8.70;99.90;;;8.66;100.00;100086.56;4997258;28;20306;-78
2022/12/21 04:04:48;;;;;;;0.68;0.68;;;8.70;99.90;;;8.59;100.00;100077.72;4996809;28;20225;-78
2022/12/21 04:07:23;;;;;;;0.00;0.00;;;8.70;99.90;;;8.64;100.00;100083.03;4977176;28;20235;-77
2022/12/21 04:10:06;;;;;;;0.00;0.00;;;8.70;99.90;;;8.61;100.00;100077.72;4982695;28;20231;-77
2022/12/21 04:12:39;;;;;;;0.00;0.00;;;8.70;99.90;;;8.65;100.00;100085.69;4985809;28;20255;-78
2022/12/21 04:15:12;;;;;;;0.52;0.52;;;8.70;99.90;;;8.56;100.00;100080.31;4984723;28;20319;-77
2022/12/21 04:17:41;;;;;;;0.00;0.00;;;8.70;99.90;;;8.64;100.00;100085.69;4982654;28;20307;-78
2022/12/21 04:20:15;;;;;;;0.10;0.10;;;8.70;99.90;;;8.64;100.00;100086.56;4992822;28;20231;-78
2022/12/21 04:28:28;;;;;;;0.10;0.10;;;8.70;99.90;;;8.66;100.00;100094.50;4988071;28;20322;-78
2022/12/21 04:31:15;;;;;;;0.00;0.00;;;8.70;99.90;;;8.54;100.00;100089.06;4984680;28;20240;-78
2022/12/21 04:33:42;;;;;;;0.00;0.00;;;8.70;99.90;;;8.59;100.00;100100.56;4986620;28;20256;-79
2022/12/21 04:38:55;;;;;;;0.10;0.10;;;8.80;99.90;;;8.66;100.00;100102.38;4986322;28;20246;-79
2022/12/21 04:41:23;;;;;;;0.10;0.10;;;8.70;99.90;;;8.57;100.00;100097.91;4986628;28;20239;-79
2022/12/21 04:43:50;;;;;;;0.10;0.10;;;8.70;99.90;;;8.63;100.00;100105.00;4987229;28;20228;-79
2022/12/21 04:46:17;;;;;;;0.22;0.15;;;8.70;99.90;;;8.60;100.00;100116.38;4999125;28;20284;-79
2022/12/21 04:48:45;;;;;;;0.20;0.20;;;8.70;99.90;;;8.58;100.00;100110.22;4987102;28;20232;-78
2022/12/21 04:51:19;;;;;;;0.20;0.20;;;8.70;99.90;;;8.58;100.00;100101.41;4988741;28;20303;-79
2022/12/21 04:53:47;;;;;;;0.10;0.10;;;8.60;99.90;;;8.52;100.00;100103.97;4985107;28;20274;-80
2022/12/21 04:56:15;;;;;;;0.28;0.28;;;8.60;99.90;;;8.62;100.00;100103.22;4990051;28;20787;-79
2022/12/21 04:58:44;;;;;;;0.88;0.43;;;8.70;99.90;;;8.57;100.00;100103.16;4985705;28;20677;-79
2022/12/21 05:01:17;;;;;;;0.10;0.10;;;8.60;99.90;;;8.52;100.00;100098.72;4988529;28;20235;-79
2022/12/21 05:03:45;;;;;;;0.10;0.10;;;8.60;99.90;;;8.54;100.00;100099.63;4992465;28;20235;-79
2022/12/21 05:06:14;;;;;;;0.00;0.00;;;8.60;99.90;;;8.56;100.00;100097.88;5007219;28;20256;-79
2022/12/21 05:08:42;;;;;;;0.10;0.10;;;8.60;99.90;;;8.52;100.00;100096.97;5011750;28;20232;-79
2022/12/21 05:11:19;;;;;;;0.10;0.10;;;8.60;99.90;;;8.48;100.00;100102.19;4990353;28;20947;-79
2022/12/21 05:13:47;;;;;;;0.10;0.10;;;8.50;99.90;;;8.56;100.00;100098.78;4996689;28;20232;-79
2022/12/21 05:16:18;;;;;;;0.65;0.65;;;8.60;99.90;;;8.52;100.00;100106.63;4991097;28;20240;-79
2022/12/21 05:18:48;;;;;;;0.00;0.00;;;8.60;99.90;;;8.51;100.00;100105.72;4990762;28;20227;-79
2022/12/21 05:21:17;;;;;;;0.20;0.20;;;8.60;99.90;;;8.54;100.00;100102.25;4988005;28;20246;-79
2022/12/21 05:23:44;;;;;;;0.00;0.00;;;8.60;99.90;;;8.58;100.00;100109.31;4991774;28;20232;-79
2022/12/21 05:26:12;;;;;;;0.45;0.45;;;8.60;99.90;;;8.51;100.00;100089.91;4989894;28;20232;-79
2022/12/21 05:28:44;;;;;;;0.30;0.28;;;8.60;99.90;;;8.56;100.00;100096.13;4987870;28;20228;-79
2022/12/21 05:31:12;;;;;;;0.03;0.03;;;8.60;99.90;;;8.52;100.00;100093.44;4986289;28;20263;-79
2022/12/21 05:33:39;;;;;;;0.00;0.00;;;8.60;99.90;;;8.47;100.00;100088.13;4988801;28;20224;-79
2022/12/21 05:36:11;;;;;;;0.30;0.30;;;8.60;99.90;;;8.52;100.00;100093.44;4986708;28;20240;-79
2022/12/21 05:38:39;;;;;;;0.00;0.00;;;8.60;99.90;;;8.53;100.00;100104.00;4988583;28;20240;-79
2022/12/21 05:41:06;;;;;;;0.10;0.10;;;8.60;99.90;;;8.50;100.00;100093.44;4988820;28;20228;-79
2022/12/21 05:43:34;;;;;;;0.03;0.03;;;8.50;99.90;;;8.43;100.00;100088.94;4987931;28;20232;-77
2022/12/21 05:46:04;;;;;;;0.10;0.10;;;8.50;99.90;;;8.44;100.00;100085.44;5001273;28;20239;-77
2022/12/21 05:48:32;;;;;;;0.75;0.70;;;8.50;99.90;;;8.51;100.00;100089.03;4989269;28;20228;-77
2022/12/21 05:50:59;;;;;;;0.52;0.52;;;8.50;99.90;;;8.45;100.00;100076.69;4977671;28;20668;-78
2022/12/21 05:53:26;;;;;;;0.00;0.00;;;8.50;99.90;;;8.52;100.00;100086.41;4988192;28;20232;-78
2022/12/21 05:55:53;;;;;;;0.10;0.10;;;8.60;99.90;;;8.46;100.00;100074.94;4990350;28;20232;-78
2022/12/21 05:58:20;;;;;;;0.13;0.13;;;8.50;99.90;;;8.47;100.00;100082.84;4985814;28;20248;-79
2022/12/21 06:00:47;;;;;;;0.10;0.10;;;8.50;99.90;;;8.40;100.00;100073.09;4985592;28;20240;-79
2022/12/21 06:03:15;;;;;;;0.00;0.00;;;8.50;99.90;;;8.44;100.00;100074.91;4986422;28;20318;-77
2022/12/21 06:05:42;;;;;;;0.32;0.28;;;8.50;99.90;;;8.47;100.00;100076.69;4986756;28;20324;-77
2022/12/21 06:08:09;;;;;;;0.10;0.10;;;8.50;99.90;;;8.45;100.00;100075.78;4984745;28;20291;-78
2022/12/21 06:10:39;;;;;;;0.10;0.10;;;8.50;99.90;;;8.43;100.00;100064.34;4987829;28;20232;-78
2022/12/21 06:13:07;;;;;;;0.10;0.10;;;8.50;99.90;;;8.40;100.00;100065.19;4985540;28;20228;-78
2022/12/21 06:15:36;;;;;;;0.00;0.00;;;8.50;99.90;;;8.45;100.00;100062.63;4989621;28;20248;-79
2022/12/21 06:18:04;;;;;;;0.10;0.10;;;8.50;99.90;;;8.42;100.00;100074.00;4985213;28;20238;-79
2022/12/21 06:20:32;;;;;;;0.10;0.10;;;8.50;99.90;;;8.43;100.00;100073.13;4967694;28;20289;-79
2022/12/21 06:23:00;;;;;;;0.00;0.00;;;8.50;99.90;;;8.38;100.00;100071.31;4972479;28;20336;-79
2022/12/21 06:25:27;;;;;;;0.10;0.10;;;8.50;99.90;;;8.41;100.00;100066.09;4986974;28;20949;-77
2022/12/21 06:27:54;;;;;;;0.10;0.10;;;8.50;99.90;;;8.42;100.00;100078.38;4989175;28;20424;-78
2022/12/21 06:30:21;;;;;;;0.00;0.00;;;8.50;99.90;;;8.44;100.00;100076.66;4985150;28;20244;-77
2022/12/21 06:32:48;;;;;;;0.40;0.40;;;8.50;99.90;;;8.46;100.00;100073.16;4967474;28;20303;-77
2022/12/21 06:35:15;;;;;;;0.80;0.80;;;8.50;99.90;;;8.43;100.00;100078.41;4965493;28;20253;-77
2022/12/21 06:37:42;;;;;;;0.90;0.75;;;8.50;99.90;;;8.49;100.00;100083.75;4982963;28;20717;-77
2022/12/21 06:40:09;;;;;;;0.10;0.10;;;8.60;99.90;;;8.56;100.00;100093.50;4963160;28;20276;-77
2022/12/21 06:42:36;;;;;;;0.15;0.15;;;8.60;99.90;;;8.48;100.00;100096.91;4978102;28;20270;-77
2022/12/21 06:45:04;;;;;;;0.10;0.10;;;8.60;99.90;;;8.54;100.00;100100.50;4964972;28;20267;-77
2022/12/21 06:47:31;;;;;;;2.10;0.80;;;8.60;99.90;;;8.59;100.00;100104.06;4963246;28;20233;-77
2022/12/21 06:49:58;;;;;;;0.10;0.10;;;8.70;99.90;;;8.63;100.00;100112.91;4962497;28;20600;-76
2022/12/21 06:52:25;;;;;;;0.10;0.10;;;8.70;99.90;;;8.63;100.00;100107.63;4970241;28;20233;-77
2022/12/21 06:54:53;;;;;;;0.30;0.30;;;8.70;99.90;;;8.68;100.00;100105.94;4969603;28;20594;-77
2022/12/21 06:57:20;;;;;;;0.10;0.10;;;8.70;99.90;;;8.68;100.00;100105.94;4974661;28;20236;-77
2022/12/21 06:59:47;;;;;;;0.00;0.00;;;8.70;99.90;;;8.75;100.00;100114.78;4985128;28;20260;-77
2022/12/21 07:02:14;;;;;;;0.10;0.10;;;8.80;99.90;;;8.68;100.00;100110.31;4966339;28;20233;-77
2022/12/21 07:04:44;;;;;;;0.13;0.13;;;8.80;99.90;;;8.79;100.00;100121.88;4973458;28;20225;-77
2022/12/21 07:07:11;;;;;;;0.00;0.00;;;8.80;99.90;;;8.80;100.00;100123.63;4960703;28;20232;-77
2022/12/21 07:09:39;;;;;;;0.05;0.05;;;8.90;99.90;;;8.77;100.00;100119.22;4969770;28;20225;-77
2022/12/21 07:12:06;;;;;;;0.00;0.00;;;8.90;99.90;;;8.82;100.00;100130.69;4951553;28;20300;-77
2022/12/21 07:14:33;;;;;;;0.10;0.10;;;8.90;99.90;;;8.76;100.00;100119.19;4966245;28;20256;-77
2022/12/21 07:17:00;;;;;;;0.00;0.00;;;8.80;99.90;;;8.79;100.00;100121.88;4982295;28;20249;-77
2022/12/21 07:19:29;;;;;;;0.22;0.22;;;8.80;99.90;;;8.78;100.00;100126.25;4968977;28;20229;-77
2022/12/21 07:21:56;;;;;;;0.00;0.00;;;8.80;99.90;;;8.78;100.00;100130.66;4964542;28;20276;-77
2022/12/21 07:24:23;;;;;;;0.00;0.00;;;8.80;99.90;;;8.81;100.00;100131.56;4981303;28;20288;-77
2022/12/21 07:26:50;;;;;;;0.10;0.10;;;8.90;99.90;;;8.81;100.00;100128.94;4970192;28;20233;-78
2022/12/21 07:29:18;;;;;;;0.05;0.05;;;8.90;99.90;;;8.79;100.00;100132.41;4970162;28;20228;-80
2022/12/21 07:31:45;;;;;;;0.00;0.00;;;8.80;99.90;;;8.77;100.00;100139.41;4983708;28;20275;-78
2022/12/21 07:34:12;;;;;;;0.03;0.03;;;8.80;99.90;;;8.80;100.00;100142.97;4966998;28;20241;-77
2022/12/21 07:36:39;;;;;;;0.10;0.10;;;8.80;99.90;;;8.75;100.00;100149.06;4967382;28;20232;-78
2022/12/21 07:39:06;;;;;;;0.10;0.10;;;8.80;99.90;;;8.73;100.00;100150.78;4966286;28;20233;-78
2022/12/21 07:41:33;;;;;;;0.10;0.10;;;8.40;99.90;;;8.74;100.00;100149.94;4982580;23;20237;-78
2022/12/21 07:44:00;;;;;;;0.10;0.10;;;8.80;99.90;;;8.84;100.00;100160.59;4967396;28;20288;-77
2022/12/21 07:46:27;;;;;;;0.00;0.00;;;8.90;99.90;;;8.79;100.00;100161.41;4964148;28;20233;-78
2022/12/21 07:48:54;;;;;;;0.35;0.35;;;8.90;99.90;;;8.88;100.00;100167.69;4960055;28;20285;-78
2022/12/21 07:51:21;;;;;;;0.32;0.32;;;8.90;99.90;;;8.78;100.00;100157.00;4959636;28;20295;-78
2022/12/21 07:53:48;;;;;;;0.10;0.10;;;8.90;99.90;;;8.84;100.00;100167.63;4968101;28;20304;-78
2022/12/21 07:56:18;;;;;;;0.03;0.03;;;8.90;99.90;;;8.83;100.00;100169.38;4969940;28;20291;-78
2022/12/21 07:58:46;;;;;;;0.00;0.00;;;8.90;99.90;;;8.83;100.00;100174.66;4968484;28;20250;-78
2022/12/21 08:01:16;;;;;;;0.00;0.00;;;8.90;99.90;;;8.87;100.00;100181.72;4970498;28;20323;-78
2022/12/21 08:03:45;;;;;;;0.03;0.03;;;8.90;99.90;;;8.90;100.00;100187.03;4972104;28;20247;-79
2022/12/21 08:06:14;;;;;;;0.00;0.00;;;9.00;99.90;;;8.90;100.00;100192.31;4964150;28;20222;-78
2022/12/21 08:08:41;;;;;;;0.10;0.10;;;9.00;99.90;;;8.91;100.00;100198.47;4965040;28;20327;-77
2022/12/21 08:11:19;;;;;;;0.00;0.00;;;9.00;99.90;;;8.92;100.00;100190.59;4964447;28;20226;-77
2022/12/21 08:13:47;;;;;;;0.10;0.10;;;9.00;99.90;;;8.89;100.00;100187.91;4968466;28;20311;-77
2022/12/21 08:16:17;;;;;;;0.00;0.00;;;9.00;99.90;;;8.93;100.00;100195.00;4962188;28;20321;-77
2022/12/21 08:18:45;;;;;;;0.10;0.10;;;9.00;99.90;;;8.93;100.00;100191.47;4961328;28;20238;-76
2022/12/21 08:21:12;;;;;;;0.00;0.00;;;9.00;99.90;;;8.82;100.00;100190.47;4963758;28;20327;-78
2022/12/21 08:23:40;;;;;;;0.00;0.00;;;8.90;99.90;;;8.85;100.00;100193.13;4958937;28;20233;-78
2022/12/21 08:26:12;;;;;;;0.00;0.00;;;8.90;99.90;;;8.80;100.00;100195.72;4966766;28;20256;-78
2022/12/21 08:28:40;;;;;;;0.00;0.00;;;8.90;99.90;;;8.81;100.00;100196.59;4962258;28;20233;-78
2022/12/21 08:31:16;;;;;;;0.10;0.10;;;8.90;99.90;;;8.85;100.00;100211.59;4970980;28;20245;-78
2022/12/21 08:33:45;;;;;;;0.10;0.10;;;8.90;99.90;;;8.82;100.00;100203.63;4977019;28;20231;-78
2022/12/21 08:36:16;;;;;;;0.63;0.63;;;8.90;99.90;;;8.82;100.00;100196.63;4966775;28;20272;-78
2022/12/21 08:38:44;;;;;;;0.00;0.00;;;8.90;99.90;;;8.75;100.00;100189.50;4972446;28;20232;-78
2022/12/21 08:41:31;;;;;;;0.05;0.05;;;8.80;99.90;;;8.75;100.00;100191.25;4972821;28;20239;-78
2022/12/21 08:43:58;;;;;;;0.00;0.00;;;8.90;99.90;;;8.74;100.00;100198.28;4972642;28;20778;-78
2022/12/21 08:46:25;;;;;;;0.10;0.10;;;8.80;99.90;;;8.71;100.00;100195.59;4972250;28;20252;-77
2022/12/21 08:48:53;;;;;;;0.00;0.00;;;8.80;99.90;;;8.70;100.00;100200.84;4971162;28;20279;-77
2022/12/21 08:51:20;;;;;;;0.00;0.00;;;8.80;99.90;;;8.71;100.00;100194.72;4969917;28;20259;-78
2022/12/21 08:53:48;;;;;;;0.00;0.00;;;8.80;99.90;;;8.68;100.00;100197.31;4972597;28;20228;-78
2022/12/21 08:56:19;;;;;;;0.05;0.05;;;8.70;99.90;;;8.73;100.00;100204.41;4963966;28;20236;-78
2022/12/21 08:58:47;;;;;;;0.10;0.10;;;8.80;99.90;;;8.74;100.00;100203.53;4973593;28;20233;-77
2022/12/21 09:01:22;;;;;;;0.10;0.10;;;8.80;99.90;;;8.72;100.00;100199.13;4955891;28;20242;-78
2022/12/21 09:03:49;;;;;;;0.20;0.20;;;8.80;99.90;;;8.73;100.00;100198.25;4965104;28;20324;-77
2022/12/21 09:06:17;;;;;;;0.10;0.10;;;8.80;99.90;;;8.80;100.00;100205.38;4985041;28;20304;-78
2022/12/21 09:08:47;;;;;;;0.00;0.00;;;8.80;99.90;;;8.85;100.00;100214.22;4989166;28;20228;-77
2022/12/21 09:11:17;;;;;;;0.38;0.38;;;8.90;99.90;;;8.85;100.00;100217.75;4984895;28;20379;-78
2022/12/21 09:13:45;;;;;;;0.10;0.10;;;8.90;99.90;;;8.83;100.00;100227.38;4987564;28;20238;-77
2022/12/21 09:16:21;;;;;;;0.10;0.10;;;8.90;99.90;;;8.89;100.00;100227.47;4952774;28;20280;-77
2022/12/21 09:18:49;;;;;;;0.00;0.00;;;8.90;99.90;;;8.88;100.00;100230.97;4980679;28;20232;-77
2022/12/21 09:21:20;;;;;;;0.77;0.77;;;8.90;99.90;;;8.88;100.00;100230.97;4960915;28;20244;-78
2022/12/21 09:23:48;;;;;;;0.10;0.10;;;8.90;99.90;;;8.90;100.00;100229.25;4953805;28;20311;-78
2022/12/21 09:26:16;;;;;;;0.00;0.00;;;8.90;99.90;;;8.83;100.00;100232.66;4965968;28;20329;-78
2022/12/21 09:28:43;;;;;;;0.10;0.10;;;8.90;99.90;;;8.88;100.00;100235.34;4966335;28;20644;-77
2022/12/21 09:31:20;;;;;;;0.10;0.10;;;8.90;99.90;;;8.90;100.00;100231.88;4964149;28;20237;-78
2022/12/21 09:33:55;;;;;;;0.05;0.05;;;8.90;99.90;;;8.94;100.00;100240.72;4970404;28;20229;-78
2022/12/21 09:36:25;;;;;;;0.22;0.22;;;9.00;99.90;;;8.95;100.00;100239.84;4980054;28;20229;-78
2022/12/21 09:38:53;;;;;;;0.10;0.10;;;9.00;99.90;;;8.89;100.00;100240.66;4964073;28;20307;-78
2022/12/21 09:41:33;;;;;;;0.10;0.10;;;9.00;99.90;;;8.94;100.00;100248.63;4964103;28;20245;-78
2022/12/21 09:44:21;;;;;;;0.00;0.00;;;9.00;99.90;;;8.93;100.00;100238.94;4966294;28;20268;-78
2022/12/21 09:46:54;;;;;;;0.00;0.00;;;9.00;99.90;;;8.95;100.00;100242.47;4969143;28;20240;-78
2022/12/21 09:49:34;;;;;;;0.00;0.00;;;9.00;99.90;;;8.94;100.00;100241.59;4965023;28;20237;-78
2022/12/21 09:52:05;;;;;;;0.10;0.10;;;9.00;99.90;;;8.93;100.00;100236.31;4966805;28;20605;-78
2022/12/21 09:54:46;;;;;;;0.10;0.10;;;9.00;99.90;;;9.06;100.00;100256.69;4967318;28;20264;-78
2022/12/21 09:57:13;;;;;;;0.10;0.10;;;9.10;99.90;;;9.03;100.00;100261.03;4967054;28;20311;-77
2022/12/21 09:59:45;;;;;;;0.00;0.00;;;9.10;99.90;;;9.05;100.00;100259.31;4967366;28;20295;-78
2022/12/21 10:02:49;;;;;;;0.20;0.20;;;9.10;99.90;;;9.14;100.00;100270.00;4969855;28;20252;-77
2022/12/21 10:05:45;;;;;;;0.40;0.40;;;9.20;99.90;;;9.22;100.00;100269.22;4971976;28;20248;-78
2022/12/21 10:08:30;;;;;;;0.00;0.00;;;9.30;99.90;;;9.27;100.00;100270.16;4982789;28;20220;-78
2022/12/21 10:11:35;;;;;;;0.03;0.03;;;9.30;99.90;;;9.29;100.00;100276.34;4985563;28;20263;-79
2022/12/21 10:14:51;;;;;;;0.00;0.00;;;9.30;99.90;;;9.32;100.00;100272.84;4969252;28;20330;-78
2022/12/21 10:17:24;;;;;;;0.00;0.00;;;9.40;99.90;;;9.32;100.00;100271.97;4961191;28;20232;-78
2022/12/21 10:20:31;;;;;;;0.10;0.10;;;9.30;99.90;;;9.33;100.00;100271.09;4983856;28;20240;-77
2022/12/21 10:23:04;;;;;;;0.00;0.00;;;9.40;99.90;;;9.47;100.00;100283.59;4983735;28;20229;-77
2022/12/21 10:25:41;;;;;;;0.30;0.30;;;9.50;99.90;;;9.56;100.00;100285.44;4976075;28;20354;-77
2022/12/21 10:28:52;;;;;;;0.52;0.35;;;9.50;99.90;;;9.62;100.00;100289.03;4984281;28;20224;-78
2022/12/21 10:31:33;;;;;;;0.45;0.30;;;9.60;99.90;;;9.72;100.00;100291.75;4978126;28;20256;-78
2022/12/21 10:34:12;;;;;;;0.05;0.05;;;9.70;99.90;;;9.79;100.00;100294.47;4977551;28;20365;-78
2022/12/21 10:36:40;;;;;;;0.00;0.00;;;9.80;99.90;;;9.83;100.00;100298.03;4984443;28;20232;-78
2022/12/21 10:39:15;;;;;;;0.10;0.10;;;9.80;99.90;;;9.76;100.00;100294.44;4986695;28;20256;-78
2022/12/21 10:42:25;;;;;;;0.10;0.10;;;9.80;99.90;;;9.78;100.00;100287.44;4975434;28;20247;-78
2022/12/21 10:44:53;;;;;;;0.10;0.10;;;9.80;99.90;;;9.84;100.00;100284.84;4947789;28;20291;-78
2022/12/21 10:47:23;;;;;;;0.00;0.00;;;9.80;99.90;;;9.87;100.00;100284.00;4967186;28;20221;-78
2022/12/21 10:50:14;;;;;;;0.38;0.38;;;9.90;99.90;;;9.90;100.00;100292.81;4967856;28;20237;-78
2022/12/21 10:52:48;;;;;;;0.00;0.00;;;9.90;99.90;;;9.94;100.00;100293.75;4966584;28;20228;-78
2022/12/21 10:55:18;;;;;;;0.00;0.00;;;9.90;99.90;;;10.05;100.00;100301.75;4963318;28;20236;-78
2022/12/21 10:58:04;;;;;;;0.10;0.10;;;10.00;99.90;;;10.09;100.00;100298.28;4962732;28;20240;-78
2022/12/21 11:00:38;;;;;;;0.10;0.10;;;10.10;99.90;;;10.12;100.00;100296.53;4960893;28;20245;-78
2022/12/21 11:03:25;;;;;;;0.20;0.20;;;10.10;99.90;;;10.12;100.00;100293.91;4965929;28;20229;-78